x

Monterey - 27nm Wnw Of Monterey, Ca (46042) Wave Buoy

10:50am - Thu 5th Mar 2015 All times are PST. -8 hours from GMT.

  • Sig Wave height 4.9ft
  • Swell Direction
  • Peak Period 16s
  • Average Period 7s
  • Wind
    11mph, 13mph gusts
  • Sea Temp 58°f
  • Air Temp 57°f
  • Sea Pressure 1026.8mb
  • Monterey - 27nm Wnw Of Monterey, Ca
  • Monterey - 27nm Wnw Of Monterey, Ca

More Historic Weather Station data

Upgrade to MSW Pro to gain access to the past 30 days of data for over 8000 Wavebouys and Weather Stations around the globe.

Join Pro

Comparision Forecast

View Surf forecast
   
Thu 03/05 10:50am 5ft 16s 7s 11 13 mph 1026.8mb 58f 57f
9:50am 4.5ft 16s 6s 13 16 mph 1026.6mb 57f 57f
8:50am 5ft 16s 7s 16 18 mph 1026.4mb 57f 57f
7:50am 5ft 16s 6s 18 20 mph 1025.4mb 57f 57f
6:50am 4.5ft 16s 6s 16 18 mph 1024.8mb 57f 56f
5:50am 4.5ft 16s 7s 16 20 mph 1024.1mb 57f 56f
4:50am 5ft 16s 8s 16 18 mph 1023.5mb 57f 56f
3:50am 5ft 16s 8s 11 13 mph 1023.3mb 57f 56f
2:50am 5ft 16s 8s 11 13 mph 1023.4mb 57f 56f
1:50am 5ft 16s 8s 7 9 mph 1023.5mb 58f 56f
12:50am 4.5ft 16s 8s 9
mph
1023.3mb 58f 56f
Wed 03/04 11:50pm 5ft 16s 8s 9
mph
1023.2mb 58f 56f
10:50pm 5ft 16s 8s 9 11 mph 1023.2mb 58f 57f
9:50pm 5ft 16s 8s 9
mph
1022.9mb 58f 57f
8:50pm 5ft 16s 8s 7 9 mph 1022.5mb 58f 57f
7:50pm 5.5ft 16s 8s 9 11 mph 1022mb 58f 57f
6:50pm 6ft 16s 8s 11 13 mph 1021.6mb 58f 57f
5:50pm 5ft 17s 7s 9 11 mph 1021.4mb 59f 58f
4:50pm 5.5ft 17s 8s 11 13 mph 1021.2mb 59f 58f
3:50pm 6ft 17s 8s 9 11 mph 1021.3mb 59f 57f
2:50pm 6.5ft 17s 8s 9
mph
1021mb 59f 57f
1:50pm 6ft 17s 8s 7
mph
1020.9mb 59f 56f
12:50pm 6ft 8s 7s 4 7 mph 1021.3mb 58f 56f
11:50am 6ft 9s 7s 4 7 mph 1021.3mb 58f 55f
10:50am 6ft 17s 8s 4 7 mph 1021mb 57f 55f
9:50am 6ft 17s 8s 7 9 mph 1020.7mb 57f 54f
8:50am 6ft 9s 7s 7 9 mph 1020.5mb 57f 53f
7:50am 6ft 17s 7s 7 9 mph 1019.5mb 57f 54f
6:50am 6ft 17s 7s 7 9 mph 1018.6mb 57f 53f
5:50am 6ft 17s 8s 7 9 mph 1018.2mb 57f 54f
4:50am 6ft 17s 7s 4 7 mph 1017.8mb 57f 54f
3:50am 6ft 17s 8s 7
mph
1017.5mb 57f 54f
2:50am 5.5ft 10s 7s 7 9 mph 1017.6mb 57f 55f
1:50am 6ft 8s 7s 9 11 mph 1017.6mb 57f 55f
12:50am 6ft 8s 7s 9 11 mph 1017.5mb 57f 55f
Tue 03/03 11:50pm 6ft 17s 7s 11 13 mph 1017mb 57f 55f
10:50pm 6.5ft 10s 7s 16 18 mph 1016.8mb 57f 55f
9:50pm 7.5ft 10s 7s 16 20 mph 1016.7mb 57f 55f
8:50pm 7ft 10s 7s 18 20 mph 1016.4mb 57f 55f
7:50pm 7ft 10s 7s 16 20 mph 1016.1mb 58f 55f
6:50pm 7ft 10s 7s 18 20 mph 1015.9mb 58f 55f
5:50pm 7ft 10s 7s 18 20 mph 1015.7mb 58f 55f
4:50pm 7ft 10s 7s 18 20 mph 1015.7mb 58f 55f
3:50pm 7.5ft 10s 7s 18 22 mph 1016mb 58f 55f
2:50pm 6.5ft 11s 7s 18 20 mph 1016.3mb 58f 55f
1:50pm 8ft 10s 8s 18 20 mph 1016.6mb 58f 55f
12:50pm 8ft 10s 8s 13 16 mph 1017.3mb 58f 55f
11:50am 7ft 11s 8s 11 16 mph 1017.9mb 58f 55f
10:50am 7.5ft 11s 8s 2 4 mph 1018.1mb 58f 55f
9:50am 7ft 10s 8s 2
mph
1018.1mb 57f 55f
8:50am 7ft 9s 8s 2 4 mph 1017.9mb 57f 55f
7:50am 7.5ft 11s 8s 4 7 mph 1017.1mb 57f 54f
6:50am 7ft 9s 7s 7
mph
1016.6mb 57f 54f
5:50am 8ft 11s 8s 4 7 mph 1016.1mb 57f 54f
4:50am 9ft 10s 8s 4 7 mph 1016.1mb 57f 54f
3:50am 9ft 10s 8s 4 7 mph 1015.9mb 57f 54f
2:50am 8ft 10s 8s 2 4 mph 1016mb 57f 54f
1:50am 8ft 10s 8s 4 7 mph 1016mb 57f 54f
12:50am 7.5ft 10s 8s 4 7 mph 1015.7mb 57f 54f
Mon 03/02 11:50pm 7ft 9s 8s 2 7 mph 1015.4mb 57f 54f
10:50pm 7.5ft 10s 8s 4 7 mph 1015mb 57f 54f
9:50pm 7.5ft 9s 7s 7 9 mph 1014.2mb 57f 54f
8:50pm 7.5ft 10s 8s 9 11 mph 1013.6mb 57f 54f
7:50pm 8ft 10s 8s 7 9 mph 1012.8mb 57f 54f
6:50pm 8ft 9s 7s  -  2 mph 1012.2mb 57f 53f
5:50pm 7.5ft 8s 7s 2 4 mph 1011.3mb 58f 54f
4:50pm 7.5ft 10s 7s 7 9 mph 1010.9mb 58f 53f
3:50pm 7.5ft 9s 7s 9 11 mph 1010.8mb 58f 53f
2:50pm 8ft 10s 7s 11 13 mph 1010.7mb 58f 53f
1:50pm 7ft 10s 7s 16 20 mph 1010.8mb 58f 53f
12:50pm 7ft 10s 7s 7 9 mph 1011.1mb 57f 53f
11:50am 6ft 10s 7s 18 27 mph 1011.1mb 57f 54f
10:50am 5.5ft 10s 7s 11 13 mph 1011mb 57f 55f
9:50am 5ft 10s 7s 11 13 mph 1011.2mb 57f 55f
8:50am 5ft 9s 7s 11 13 mph 1011.3mb 57f 55f
7:50am 5ft 10s 7s 11 13 mph 1011.1mb 57f 55f
6:50am 5ft 9s 7s 9 11 mph 1011.1mb 57f 55f
5:50am 5ft 10s 7s 9 11 mph 1011.4mb 57f 55f
4:50am 6ft 9s 7s 7 9 mph 1011.4mb 57f 55f
3:50am 5ft 10s 7s 7 9 mph 1011.7mb 57f 55f
2:50am 6ft 9s 7s 7 9 mph 1012.4mb 57f 55f
1:50am 6ft 9s 7s 7 9 mph 1013.2mb 57f 56f
12:50am 6ft 10s 7s 7 9 mph 1013.8mb 57f 56f
Sun 03/01 11:50pm 6ft 10s 7s 11 13 mph 1014mb 57f 56f
10:50pm 6ft 11s 7s 11 13 mph 1014.3mb 58f 56f
9:50pm 6ft 11s 7s 13 16 mph 1014.4mb 58f 56f
8:50pm 7ft 11s 7s 13 18 mph 1014.4mb 58f 56f